createdAt,value
2022-09-21T00:01:27.239Z,100884.50
2022-09-21T00:03:55.940Z,100878.44
2022-09-21T00:06:24.658Z,100886.25
2022-09-21T00:08:52.088Z,100893.34
2022-09-21T00:11:21.913Z,100885.56
2022-09-21T00:13:52.110Z,100890.06
2022-09-21T00:16:18.933Z,100884.81
2022-09-21T00:18:45.788Z,100890.00
2022-09-21T00:21:15.059Z,100889.97
2022-09-21T00:23:42.451Z,100897.78
2022-09-21T00:26:21.194Z,100898.72
2022-09-21T00:28:52.471Z,100899.81
2022-09-21T00:31:19.315Z,100909.44
2022-09-21T00:33:46.553Z,100900.50
2022-09-21T00:36:19.019Z,100909.31
2022-09-21T00:38:50.150Z,100901.37
2022-09-21T00:41:17.013Z,100905.84
2022-09-21T00:43:47.915Z,100904.87
2022-09-21T00:46:19.149Z,100905.78
2022-09-21T00:48:47.109Z,100895.28
2022-09-21T00:51:14.850Z,100903.31
2022-09-21T00:53:41.816Z,100898.91
2022-09-21T00:56:11.118Z,100899.81
2022-09-21T00:58:45.088Z,100897.22
2022-09-21T01:01:18.537Z,100902.50
2022-09-21T01:03:47.504Z,100901.56
2022-09-21T01:06:17.224Z,100905.94
2022-09-21T01:08:47.096Z,100901.56
2022-09-21T01:11:28.308Z,100912.09
2022-09-21T01:13:58.089Z,100912.16
2022-09-21T01:16:57.115Z,100906.03
2022-09-21T01:20:13.320Z,100908.66
2022-09-21T01:23:07.047Z,100899.03
2022-09-21T01:25:43.123Z,100893.75
2022-09-21T01:28:36.707Z,100893.72
2022-09-21T01:31:06.993Z,100899.00
2022-09-21T01:33:44.369Z,100894.63
2022-09-21T01:36:16.611Z,100899.91
2022-09-21T01:38:51.331Z,100907.78
2022-09-21T01:41:28.981Z,100899.84
2022-09-21T01:44:03.074Z,100895.47
2022-09-21T01:46:32.681Z,100897.25
2022-09-21T01:49:06.037Z,100893.69
2022-09-21T01:51:34.584Z,100896.31
2022-09-21T01:54:12.996Z,100901.59
2022-09-21T01:56:45.125Z,100898.03
2022-09-21T01:59:11.799Z,100902.47
2022-09-21T02:02:05.411Z,100902.44
2022-09-21T02:04:35.298Z,100899.03
2022-09-21T02:07:02.004Z,100891.97
2022-09-21T02:09:29.078Z,100893.75
2022-09-21T02:11:57.064Z,100892.81
2022-09-21T02:14:25.729Z,100893.75
2022-09-21T02:17:15.491Z,100899.91
2022-09-21T02:19:47.939Z,100903.41
2022-09-21T02:22:31.908Z,100905.16
2022-09-21T02:25:08.541Z,100907.78
2022-09-21T02:27:56.740Z,100897.25
2022-09-21T02:30:25.597Z,100899.00
2022-09-21T02:33:05.188Z,100901.66
2022-09-21T02:35:45.528Z,100902.53
2022-09-21T02:38:20.537Z,100895.50
2022-09-21T02:43:57.589Z,100902.50
2022-09-21T02:46:38.171Z,100905.13
2022-09-21T02:49:10.480Z,100912.16
2022-09-21T02:51:47.900Z,100916.53
2022-09-21T02:54:22.901Z,100912.16
2022-09-21T02:56:51.608Z,100923.56
2022-09-21T02:59:18.572Z,100920.91
2022-09-21T03:01:45.414Z,100920.91
2022-09-21T03:04:12.168Z,100917.38
2022-09-21T03:06:38.984Z,100914.78
2022-09-21T03:09:05.789Z,100918.25
2022-09-21T03:11:32.570Z,100925.31
2022-09-21T03:13:59.928Z,100921.81
2022-09-21T03:16:26.679Z,100920.06
2022-09-21T03:18:53.448Z,100923.56
2022-09-21T03:21:20.268Z,100926.19
2022-09-21T03:23:46.958Z,100933.19
2022-09-21T03:26:13.688Z,100929.69
2022-09-21T03:28:40.409Z,100933.00
2022-09-21T03:31:07.168Z,100934.00
2022-09-21T03:33:34.008Z,100933.09
2022-09-21T03:36:00.708Z,100928.75
2022-09-21T03:38:27.449Z,100935.72
2022-09-21T03:40:58.019Z,100939.28
2022-09-21T03:43:25.418Z,100939.13
2022-09-21T03:45:52.989Z,100941.81
2022-09-21T03:48:21.803Z,100938.34
2022-09-21T03:50:48.600Z,100945.34
2022-09-21T03:53:15.816Z,100944.25
2022-09-21T03:55:43.322Z,100949.50
2022-09-21T03:58:10.205Z,100947.72
2022-09-21T04:00:38.353Z,100954.84
2022-09-21T04:03:05.560Z,100955.00
2022-09-21T04:05:32.797Z,100958.50
2022-09-21T04:08:02.137Z,100958.31
2022-09-21T04:10:33.109Z,100955.84
2022-09-21T04:13:04.536Z,100961.81
2022-09-21T04:15:31.573Z,100968.75
2022-09-21T04:17:59.302Z,100968.91
2022-09-21T04:20:26.253Z,100962.72
2022-09-21T04:22:53.039Z,100965.50
2022-09-21T04:25:20.579Z,100971.59
2022-09-21T04:27:47.438Z,100982.16
2022-09-21T04:30:16.008Z,100988.28
2022-09-21T04:32:43.039Z,100987.41
2022-09-21T04:35:10.671Z,100983.75
2022-09-21T04:37:37.762Z,100983.75
2022-09-21T04:40:05.985Z,100982.97
2022-09-21T04:42:33.439Z,100988.94
2022-09-21T04:45:00.808Z,100992.41
2022-09-21T04:47:33.019Z,101001.09
2022-09-21T04:49:59.728Z,100995.88
2022-09-21T04:52:26.607Z,101000.16
2022-09-21T04:54:53.363Z,101004.72
2022-09-21T04:57:20.093Z,101003.00
2022-09-21T04:59:46.826Z,101002.22
2022-09-21T05:02:13.593Z,101010.16
2022-09-21T05:04:40.414Z,101014.31
2022-09-21T05:07:07.226Z,101005.69
2022-09-21T05:09:52.883Z,101007.69
2022-09-21T05:12:19.595Z,101006.84
2022-09-21T05:15:03.343Z,101009.50
2022-09-21T05:17:32.852Z,101000.59
2022-09-21T05:19:59.731Z,100999.81
2022-09-21T05:22:28.082Z,101010.31
2022-09-21T05:24:55.943Z,100997.75
2022-09-21T05:27:22.789Z,100996.53
2022-09-21T05:29:49.972Z,100991.19
2022-09-21T05:32:28.902Z,100995.56
2022-09-21T05:35:24.528Z,100993.06
2022-09-21T05:38:02.649Z,100995.50
2022-09-21T05:40:29.794Z,100995.56
2022-09-21T05:42:56.928Z,100994.22
2022-09-21T05:45:24.159Z,100999.78
2022-09-21T05:48:06.157Z,100999.59
2022-09-21T05:50:54.511Z,100997.06
2022-09-21T05:53:36.379Z,100996.31
2022-09-21T05:56:24.958Z,100990.31
2022-09-21T05:59:25.432Z,100992.38
2022-09-21T06:02:04.396Z,100981.38
2022-09-21T06:04:31.689Z,100985.56
2022-09-21T06:06:58.449Z,100993.75
2022-09-21T06:09:26.855Z,100983.13
2022-09-21T06:11:53.939Z,100996.03
2022-09-21T06:14:24.870Z,100991.81
2022-09-21T06:16:52.211Z,100985.69
2022-09-21T06:19:19.302Z,100999.41
2022-09-21T06:21:46.331Z,100999.00
2022-09-21T06:24:13.225Z,101013.25
2022-09-21T06:26:39.952Z,101024.00
2022-09-21T06:29:06.971Z,101029.91
2022-09-21T06:31:33.756Z,101037.69
2022-09-21T06:34:00.610Z,101030.47
2022-09-21T06:36:27.647Z,101033.81
2022-09-21T06:39:04.172Z,101028.25
2022-09-21T06:41:31.083Z,101031.47
2022-09-21T06:43:58.009Z,101030.69
2022-09-21T06:46:24.979Z,101036.81
2022-09-21T06:48:51.977Z,101039.81
2022-09-21T06:51:21.078Z,101042.47
2022-09-21T06:53:48.795Z,101033.22
2022-09-21T06:56:16.208Z,101037.59
2022-09-21T06:58:43.039Z,101039.84
2022-09-21T07:01:12.629Z,101039.28
2022-09-21T07:03:41.375Z,101032.81
2022-09-21T07:06:09.589Z,101047.81
2022-09-21T07:11:24.186Z,101045.28
2022-09-21T07:13:51.328Z,101039.19
2022-09-21T07:16:19.931Z,101048.84
2022-09-21T07:18:47.439Z,101041.13
2022-09-21T07:21:14.992Z,101041.75
2022-09-21T07:23:41.843Z,101055.50
2022-09-21T07:26:11.085Z,101044.41
2022-09-21T07:28:38.444Z,101044.94
2022-09-21T07:31:10.241Z,101049.97
2022-09-21T07:33:37.991Z,101049.91
2022-09-21T07:36:10.588Z,101042.56
2022-09-21T07:38:40.134Z,101045.31
2022-09-21T07:41:08.377Z,101049.69
2022-09-21T07:43:35.295Z,101049.78
2022-09-21T07:46:02.332Z,101043.16
2022-09-21T07:48:29.245Z,101034.06
2022-09-21T07:51:01.385Z,101042.16
2022-09-21T07:53:28.185Z,101045.03
2022-09-21T07:56:01.323Z,101042.03
2022-09-21T07:58:46.826Z,101040.59
2022-09-21T08:01:13.738Z,101043.37
2022-09-21T08:03:40.771Z,101042.47
2022-09-21T08:06:09.490Z,101045.41
2022-09-21T08:08:37.091Z,101041.41
2022-09-21T08:11:08.541Z,101035.38
2022-09-21T08:13:35.332Z,101035.44
2022-09-21T08:16:03.453Z,101038.53
2022-09-21T08:18:30.716Z,101048.91
2022-09-21T08:21:00.499Z,101040.19
2022-09-21T08:23:29.311Z,101035.62
2022-09-21T08:26:03.730Z,101029.28
2022-09-21T08:28:31.461Z,101034.09
2022-09-21T08:31:02.657Z,101031.69
2022-09-21T08:33:29.991Z,101026.87
2022-09-21T08:36:00.270Z,101030.97
2022-09-21T08:38:32.337Z,101034.69
2022-09-21T08:41:02.303Z,101043.91
2022-09-21T08:43:40.051Z,101026.19
2022-09-21T08:46:13.080Z,101032.56
2022-09-21T08:48:46.642Z,101032.00
2022-09-21T08:51:23.356Z,101026.44
2022-09-21T08:53:53.932Z,101023.84
2022-09-21T08:56:23.491Z,101028.59
2022-09-21T08:58:50.406Z,101035.28
2022-09-21T09:01:20.230Z,101034.53
2022-09-21T09:04:41.830Z,101039.81
2022-09-21T09:07:28.852Z,101039.19
2022-09-21T09:10:26.898Z,101039.41
2022-09-21T09:13:20.952Z,101038.69
2022-09-21T09:16:12.966Z,101033.84
2022-09-21T09:18:52.908Z,101036.44
2022-09-21T09:21:38.613Z,101032.91
2022-09-21T09:24:14.380Z,101041.78
2022-09-21T09:26:49.915Z,101032.09
2022-09-21T09:29:29.360Z,101035.91
2022-09-21T09:31:58.452Z,101022.47
2022-09-21T09:34:32.365Z,101027.28
2022-09-21T09:37:10.370Z,101016.44
2022-09-21T09:39:39.188Z,101017.47
2022-09-21T09:42:09.060Z,101013.94
2022-09-21T09:45:02.217Z,101014.69
2022-09-21T09:47:47.711Z,101019.94
2022-09-21T09:50:34.278Z,101013.84
2022-09-21T09:53:15.152Z,101001.19
2022-09-21T09:55:46.583Z,101002.66
2022-09-21T09:58:38.798Z,101003.81
2022-09-21T10:01:06.542Z,100994.03
2022-09-21T10:03:33.590Z,101001.25
2022-09-21T10:06:00.516Z,100996.25
2022-09-21T10:08:44.450Z,100987.00
2022-09-21T10:11:17.083Z,100992.44
2022-09-21T10:13:46.849Z,100984.12
2022-09-21T10:16:15.449Z,100979.97
2022-09-21T10:18:49.382Z,100992.56
2022-09-21T10:21:37.966Z,100976.81
2022-09-21T10:24:08.175Z,100985.97
2022-09-21T10:26:46.005Z,100984.94
2022-09-21T10:29:26.722Z,100980.13
2022-09-21T10:32:08.955Z,100977.69
2022-09-21T10:34:39.223Z,100976.37
2022-09-21T10:37:28.915Z,100988.09
2022-09-21T10:39:56.530Z,100986.91
2022-09-21T10:42:23.888Z,100986.56
2022-09-21T10:44:53.762Z,100993.44
2022-09-21T10:47:34.440Z,100991.62
2022-09-21T10:50:05.850Z,100980.19
2022-09-21T10:52:38.800Z,100980.97
2022-09-21T10:55:08.558Z,100986.28
2022-09-21T10:57:35.513Z,100974.88
2022-09-21T11:00:24.110Z,100985.56
2022-09-21T11:02:51.184Z,100983.38
2022-09-21T11:05:25.650Z,100982.50
2022-09-21T11:08:11.329Z,100983.88
2022-09-21T11:11:08.241Z,100983.66
2022-09-21T11:13:44.819Z,100990.38
2022-09-21T11:16:50.560Z,100982.41
2022-09-21T11:19:49.001Z,100979.06
2022-09-21T11:22:31.120Z,100983.59
2022-09-21T11:25:37.502Z,100988.88
2022-09-21T11:28:31.790Z,101000.84
2022-09-21T11:31:01.527Z,100977.75
2022-09-21T11:33:39.651Z,100985.16
2022-09-21T11:36:33.170Z,100976.66
2022-09-21T11:39:09.951Z,100974.09
2022-09-21T11:41:48.890Z,100982.37
2022-09-21T11:44:21.920Z,100966.41
2022-09-21T11:47:12.999Z,100962.03
2022-09-21T11:50:34.310Z,100956.81
2022-09-21T11:53:25.717Z,100952.69
2022-09-21T11:56:16.831Z,100953.28
2022-09-21T11:59:07.322Z,100948.00
2022-09-21T12:01:37.050Z,100954.66
2022-09-21T12:04:11.200Z,100939.88
2022-09-21T12:06:50.108Z,100946.38
2022-09-21T12:09:18.050Z,100959.56
2022-09-21T12:12:02.882Z,100954.44
2022-09-21T12:15:00.366Z,100956.41
2022-09-21T12:17:53.481Z,100944.78
2022-09-21T12:20:43.489Z,100941.19
2022-09-21T12:23:19.561Z,100938.84
2022-09-21T12:26:15.940Z,100937.53
2022-09-21T12:28:52.117Z,100933.47
2022-09-21T12:31:42.336Z,100935.88
2022-09-21T12:34:19.026Z,100953.50
2022-09-21T12:37:05.883Z,100951.87
2022-09-21T12:39:49.279Z,100943.47
2022-09-21T12:42:42.142Z,100940.25
2022-09-21T12:45:22.063Z,100947.19
2022-09-21T12:47:54.156Z,100945.00
2022-09-21T12:50:35.181Z,100959.69
2022-09-21T12:53:02.858Z,100948.94
2022-09-21T12:55:44.682Z,100946.44
2022-09-21T12:58:17.099Z,100936.84
2022-09-21T13:01:05.537Z,100939.00
2022-09-21T13:03:50.460Z,100937.25
2022-09-21T13:06:41.717Z,100940.09
2022-09-21T13:09:12.959Z,100936.88
2022-09-21T13:12:01.872Z,100943.16
2022-09-21T13:14:36.667Z,100926.16
2022-09-21T13:17:06.071Z,100925.19
2022-09-21T13:19:37.404Z,100929.41
2022-09-21T13:22:22.733Z,100917.16
2022-09-21T13:25:03.322Z,100915.78
2022-09-21T13:28:00.889Z,100919.81
2022-09-21T13:30:44.344Z,100916.00
2022-09-21T13:33:20.209Z,100916.25
2022-09-21T13:35:53.155Z,100906.06
2022-09-21T13:38:27.228Z,100907.94
2022-09-21T13:41:02.956Z,100912.59
2022-09-21T13:43:48.415Z,100913.03
2022-09-21T13:46:46.586Z,100908.22
2022-09-21T13:49:16.024Z,100905.53
2022-09-21T13:52:23.289Z,100907.66
2022-09-21T13:54:52.400Z,100913.44
2022-09-21T13:57:34.510Z,100926.34
2022-09-21T14:00:13.392Z,100920.25
2022-09-21T14:02:44.871Z,100915.00
2022-09-21T14:05:30.112Z,100911.06
2022-09-21T14:08:19.000Z,100912.94
2022-09-21T14:10:55.577Z,100905.69
2022-09-21T14:13:46.971Z,100902.19
2022-09-21T14:16:34.838Z,100903.88
2022-09-21T14:19:03.844Z,100896.97
2022-09-21T14:21:31.476Z,100897.72
2022-09-21T14:24:07.877Z,100895.44
2022-09-21T14:26:41.440Z,100898.19
2022-09-21T14:29:16.359Z,100904.56
2022-09-21T14:31:43.833Z,100908.41
2022-09-21T14:34:23.339Z,100906.47
2022-09-21T14:36:52.493Z,100899.22
2022-09-21T14:39:30.394Z,100901.00
2022-09-21T14:42:02.862Z,100900.59
2022-09-21T14:44:31.832Z,100897.50
2022-09-21T14:47:29.282Z,100902.66
2022-09-21T14:50:18.630Z,100897.69
2022-09-21T14:52:54.454Z,100891.37
2022-09-21T14:55:28.191Z,100899.97
2022-09-21T14:58:14.903Z,100895.88
2022-09-21T15:00:44.452Z,100887.66
2022-09-21T15:03:35.878Z,100889.44
2022-09-21T15:06:39.936Z,100895.53
2022-09-21T15:09:46.973Z,100898.06
2022-09-21T15:13:01.152Z,100917.53
2022-09-21T15:15:59.071Z,100908.56
2022-09-21T15:18:26.304Z,100904.66
2022-09-21T15:21:02.594Z,100907.94
2022-09-21T15:23:33.932Z,100901.13
2022-09-21T15:26:04.141Z,100904.94
2022-09-21T15:29:08.884Z,100900.63
2022-09-21T15:31:42.162Z,100907.56
2022-09-21T15:34:11.240Z,100904.66
2022-09-21T15:36:40.587Z,100900.50
2022-09-21T15:39:20.610Z,100905.75
2022-09-21T15:41:49.533Z,100900.31
2022-09-21T15:44:24.086Z,100896.59
2022-09-21T15:47:01.209Z,100898.00
2022-09-21T15:49:30.106Z,100903.06
2022-09-21T15:52:13.065Z,100900.69
2022-09-21T15:54:52.263Z,100907.69
2022-09-21T15:57:39.384Z,100904.25
2022-09-21T16:00:15.816Z,100913.06
2022-09-21T16:02:51.750Z,100920.53
2022-09-21T16:05:22.266Z,100918.16
2022-09-21T16:07:49.367Z,100923.06
2022-09-21T16:10:31.278Z,100923.06
2022-09-21T16:13:30.547Z,100927.50
2022-09-21T16:16:01.891Z,100929.00
2022-09-21T16:18:35.447Z,100934.47
2022-09-21T16:21:22.438Z,100929.78
2022-09-21T16:23:52.170Z,100934.91
2022-09-21T16:26:32.886Z,100934.81
2022-09-21T16:29:16.841Z,100935.34
2022-09-21T16:31:49.888Z,100939.56
2022-09-21T16:34:23.157Z,100935.13
2022-09-21T16:36:51.682Z,100936.22
2022-09-21T16:39:20.089Z,100938.78
2022-09-21T16:41:54.207Z,100935.47
2022-09-21T16:44:25.804Z,100937.66
2022-09-21T16:46:56.898Z,100944.31
2022-09-21T16:49:30.214Z,100942.44
2022-09-21T16:51:59.788Z,100935.56
2022-09-21T16:54:27.793Z,100933.06
2022-09-21T16:56:57.643Z,100941.38
2022-09-21T16:59:25.647Z,100953.38
2022-09-21T17:01:56.522Z,100952.56
2022-09-21T17:04:26.333Z,100944.22
2022-09-21T17:06:54.285Z,100953.28
2022-09-21T17:09:35.732Z,100951.72
2022-09-21T17:12:04.535Z,100953.50
2022-09-21T17:14:37.114Z,100953.97
2022-09-21T17:17:11.066Z,100957.75
2022-09-21T17:19:38.127Z,100958.03
2022-09-21T17:22:07.181Z,100952.66
2022-09-21T17:24:49.655Z,100954.19
2022-09-21T17:27:19.406Z,100957.25
2022-09-21T17:29:50.114Z,100965.16
2022-09-21T17:32:21.629Z,100977.66
2022-09-21T17:35:13.996Z,100969.37
2022-09-21T17:37:40.770Z,100968.69
2022-09-21T17:40:11.098Z,100973.31
2022-09-21T17:42:44.464Z,100980.69
2022-09-21T17:45:39.251Z,100972.63
2022-09-21T17:48:11.056Z,100977.03
2022-09-21T17:50:37.965Z,100986.94
2022-09-21T17:53:23.958Z,100992.63
2022-09-21T17:55:57.034Z,100992.34
2022-09-21T17:58:50.191Z,100998.12
2022-09-21T18:01:37.931Z,100988.12
2022-09-21T18:04:05.820Z,100996.13
2022-09-21T18:06:34.336Z,101000.59
2022-09-21T18:09:01.895Z,101003.06
2022-09-21T18:12:06.482Z,100995.34
2022-09-21T18:14:53.156Z,101013.81
2022-09-21T18:17:32.734Z,101012.66
2022-09-21T18:20:29.675Z,101013.28
2022-09-21T18:23:06.716Z,101017.25
2022-09-21T18:25:47.818Z,101017.31
2022-09-21T18:28:24.068Z,101021.09
2022-09-21T18:31:00.227Z,101020.88
2022-09-21T18:33:54.064Z,101025.22
2022-09-21T18:36:48.785Z,101034.44
2022-09-21T18:39:27.916Z,101037.66
2022-09-21T18:42:28.478Z,101030.34
2022-09-21T18:45:06.356Z,101042.06
2022-09-21T18:47:54.560Z,101039.91
2022-09-21T18:50:34.328Z,101042.66
2022-09-21T18:53:09.400Z,101043.59
2022-09-21T18:55:37.799Z,101048.09
2022-09-21T18:58:04.908Z,101052.41
2022-09-21T19:00:32.189Z,101048.19
2022-09-21T19:03:18.173Z,101046.41
2022-09-21T19:05:52.468Z,101056.59
2022-09-21T19:08:25.549Z,101055.22
2022-09-21T19:11:04.407Z,101054.34
2022-09-21T19:13:59.253Z,101054.53
2022-09-21T19:16:59.297Z,101044.22
2022-09-21T19:19:51.395Z,101049.28
2022-09-21T19:22:30.312Z,101043.94
2022-09-21T19:25:15.785Z,101049.31
2022-09-21T19:27:59.628Z,101038.59
2022-09-21T19:30:27.036Z,101047.59
2022-09-21T19:32:58.619Z,101047.59
2022-09-21T19:35:28.292Z,101048.06
2022-09-21T19:38:01.868Z,101050.50
2022-09-21T19:40:41.900Z,101051.44
2022-09-21T19:43:14.718Z,101048.59
2022-09-21T19:45:47.499Z,101055.62
2022-09-21T19:48:16.420Z,101045.06
2022-09-21T19:50:47.144Z,101055.09
2022-09-21T19:53:35.511Z,101053.09
2022-09-21T19:56:21.712Z,101049.53
2022-09-21T19:59:07.334Z,101046.81
2022-09-21T20:01:38.570Z,101046.69
2022-09-21T20:04:06.501Z,101051.28
2022-09-21T20:06:44.296Z,101054.97
2022-09-21T20:09:29.222Z,101049.78
2022-09-21T20:12:22.036Z,101054.06
2022-09-21T20:15:03.754Z,101059.44
2022-09-21T20:17:43.826Z,101056.66
2022-09-21T20:20:26.562Z,101065.59
2022-09-21T20:22:54.300Z,101050.69
2022-09-21T20:25:26.647Z,101058.91
2022-09-21T20:27:58.700Z,101055.91
2022-09-21T20:30:36.119Z,101065.69
2022-09-21T20:33:09.315Z,101062.31
2022-09-21T20:35:36.190Z,101065.78
2022-09-21T20:38:03.291Z,101060.53
2022-09-21T20:40:32.509Z,101067.59
2022-09-21T20:43:01.342Z,101059.00
2022-09-21T20:45:29.464Z,101061.81
2022-09-21T20:47:57.460Z,101060.03
2022-09-21T20:50:30.513Z,101065.47
2022-09-21T20:52:57.461Z,101067.00
2022-09-21T20:55:24.498Z,101069.84
2022-09-21T20:57:51.245Z,101074.53
2022-09-21T21:00:19.530Z,101072.66
2022-09-21T21:02:46.327Z,101070.06
2022-09-21T21:05:13.047Z,101080.03
2022-09-21T21:07:43.560Z,101075.59
2022-09-21T21:10:15.746Z,101080.00
2022-09-21T21:12:42.748Z,101081.50
2022-09-21T21:15:10.306Z,101083.69
2022-09-21T21:17:37.149Z,101083.66
2022-09-21T21:20:05.736Z,101081.94
2022-09-21T21:22:33.086Z,101082.88
2022-09-21T21:24:59.796Z,101082.13
2022-09-21T21:27:28.145Z,101076.63
2022-09-21T21:29:55.628Z,101078.41
2022-09-21T21:32:24.676Z,101080.22
2022-09-21T21:34:52.686Z,101083.81
2022-09-21T21:37:21.328Z,101084.75
2022-09-21T21:39:48.254Z,101086.41
2022-09-21T21:42:15.417Z,101082.03
2022-09-21T21:44:42.154Z,101089.94
2022-09-21T21:47:37.720Z,101083.75
2022-09-21T21:49:55.540Z,101083.81
2022-09-21T21:52:22.325Z,101078.53
2022-09-21T21:54:50.154Z,101078.63
2022-09-21T21:57:16.986Z,101080.47
2022-09-21T21:59:43.965Z,101077.72
2022-09-21T22:02:10.821Z,101087.41
2022-09-21T22:04:38.871Z,101089.09
2022-09-21T22:07:06.110Z,101088.22
2022-09-21T22:09:32.925Z,101079.44
2022-09-21T22:12:02.074Z,101074.19
2022-09-21T22:14:28.866Z,101083.06
2022-09-21T22:16:55.743Z,101081.28
2022-09-21T22:19:22.473Z,101076.09
2022-09-21T22:21:53.972Z,101074.28
2022-09-21T22:24:22.427Z,101071.72
2022-09-21T22:26:49.526Z,101070.84
2022-09-21T22:29:17.494Z,101062.09
2022-09-21T22:31:47.204Z,101062.09
2022-09-21T22:34:14.907Z,101064.78
2022-09-21T22:36:43.980Z,101065.62
2022-09-21T22:39:12.328Z,101068.31
2022-09-21T22:41:41.138Z,101070.91
2022-09-21T22:44:09.173Z,101063.00
2022-09-21T22:46:36.873Z,101061.28
2022-09-21T22:49:04.501Z,101063.91
2022-09-21T22:51:31.792Z,101058.59
2022-09-21T22:53:58.877Z,101058.62
2022-09-21T22:56:29.154Z,101056.91
2022-09-21T22:58:58.825Z,101057.81
2022-09-21T23:01:28.792Z,101057.75
2022-09-21T23:03:58.724Z,101043.69
2022-09-21T23:06:28.263Z,101047.16
2022-09-21T23:08:57.760Z,101046.38
2022-09-21T23:11:30.590Z,101044.56
2022-09-21T23:13:59.214Z,101053.38
2022-09-21T23:16:28.467Z,101048.97
2022-09-21T23:18:56.449Z,101042.75
2022-09-21T23:21:26.308Z,101047.25
2022-09-21T23:24:02.839Z,101048.09
2022-09-21T23:26:32.234Z,101042.81
2022-09-21T23:29:01.250Z,101056.03
2022-09-21T23:31:29.265Z,101049.88
2022-09-21T23:33:59.230Z,101044.63
2022-09-21T23:36:29.802Z,101044.56
2022-09-21T23:38:57.333Z,101043.75
2022-09-21T23:41:27.379Z,101042.81
2022-09-21T23:43:54.740Z,101045.47
2022-09-21T23:46:25.539Z,101044.63
2022-09-21T23:48:52.612Z,101041.09
2022-09-21T23:51:19.636Z,101035.84
2022-09-21T23:53:46.990Z,101036.66
2022-09-21T23:56:17.569Z,101044.59
2022-09-21T23:58:44.458Z,101039.31
